sensor_id;sensor_type;location;lat;lon;timestamp;temperature;humidity
77039;DHT22;65970;50.476;4.840;2023-06-24T00:03:49;23.90;28.40
77039;DHT22;65970;50.476;4.840;2023-06-24T00:08:50;23.90;28.40
77039;DHT22;65970;50.476;4.840;2023-06-24T00:13:51;23.90;28.40
77039;DHT22;65970;50.476;4.840;2023-06-24T00:18:51;23.80;28.40
77039;DHT22;65970;50.476;4.840;2023-06-24T00:23:52;23.70;28.50
77039;DHT22;65970;50.476;4.840;2023-06-24T00:28:52;23.70;28.40
77039;DHT22;65970;50.476;4.840;2023-06-24T00:33:53;23.70;28.50
77039;DHT22;65970;50.476;4.840;2023-06-24T00:38:55;23.60;28.50
77039;DHT22;65970;50.476;4.840;2023-06-24T00:43:56;23.50;27.20
77039;DHT22;65970;50.476;4.840;2023-06-24T00:48:58;23.50;28.60
77039;DHT22;65970;50.476;4.840;2023-06-24T00:53:58;23.50;28.60
77039;DHT22;65970;50.476;4.840;2023-06-24T00:59:00;23.40;28.60
77039;DHT22;65970;50.476;4.840;2023-06-24T01:04:03;23.40;28.60
77039;DHT22;65970;50.476;4.840;2023-06-24T01:09:04;23.30;28.60
77039;DHT22;65970;50.476;4.840;2023-06-24T01:14:04;23.30;28.70
77039;DHT22;65970;50.476;4.840;2023-06-24T01:35:31;23.00;28.70
77039;DHT22;65970;50.476;4.840;2023-06-24T01:40:38;23.00;28.60
77039;DHT22;65970;50.476;4.840;2023-06-24T01:45:42;22.90;28.50
77039;DHT22;65970;50.476;4.840;2023-06-24T01:51:27;22.90;28.60
77039;DHT22;65970;50.476;4.840;2023-06-24T01:56:11;22.80;28.40
77039;DHT22;65970;50.476;4.840;2023-06-24T02:01:13;22.80;28.50
77039;DHT22;65970;50.476;4.840;2023-06-24T02:06:15;22.70;28.50
77039;DHT22;65970;50.476;4.840;2023-06-24T02:11:17;22.70;28.60
77039;DHT22;65970;50.476;4.840;2023-06-24T02:16:20;22.60;28.50
77039;DHT22;65970;50.476;4.840;2023-06-24T02:21:23;22.50;27.70
77039;DHT22;65970;50.476;4.840;2023-06-24T02:26:25;22.50;28.50
77039;DHT22;65970;50.476;4.840;2023-06-24T02:31:26;22.40;28.50
77039;DHT22;65970;50.476;4.840;2023-06-24T02:36:26;22.30;28.60
77039;DHT22;65970;50.476;4.840;2023-06-24T02:41:27;22.30;28.60
77039;DHT22;65970;50.476;4.840;2023-06-24T02:46:29;22.30;28.70
77039;DHT22;65970;50.476;4.840;2023-06-24T02:51:31;22.20;28.70
77039;DHT22;65970;50.476;4.840;2023-06-24T02:56:32;22.20;28.60
77039;DHT22;65970;50.476;4.840;2023-06-24T03:01:35;22.10;28.60
77039;DHT22;65970;50.476;4.840;2023-06-24T03:06:36;22.10;28.60
77039;DHT22;65970;50.476;4.840;2023-06-24T03:11:43;22.00;28.60
77039;DHT22;65970;50.476;4.840;2023-06-24T03:16:44;22.00;28.60
77039;DHT22;65970;50.476;4.840;2023-06-24T03:21:45;21.90;28.80
77039;DHT22;65970;50.476;4.840;2023-06-24T03:26:46;21.90;28.90
77039;DHT22;65970;50.476;4.840;2023-06-24T03:31:47;21.80;29.00
77039;DHT22;65970;50.476;4.840;2023-06-24T03:36:47;21.80;28.90
77039;DHT22;65970;50.476;4.840;2023-06-24T03:41:48;21.70;28.90
77039;DHT22;65970;50.476;4.840;2023-06-24T03:46:48;21.70;29.10
77039;DHT22;65970;50.476;4.840;2023-06-24T03:51:49;21.60;29.00
77039;DHT22;65970;50.476;4.840;2023-06-24T03:56:49;21.60;29.10
77039;DHT22;65970;50.476;4.840;2023-06-24T04:01:50;21.60;29.20
77039;DHT22;65970;50.476;4.840;2023-06-24T04:06:50;21.50;29.20
77039;DHT22;65970;50.476;4.840;2023-06-24T04:11:51;21.50;29.20
77039;DHT22;65970;50.476;4.840;2023-06-24T04:16:52;21.40;29.30
77039;DHT22;65970;50.476;4.840;2023-06-24T04:21:52;21.40;29.30
77039;DHT22;65970;50.476;4.840;2023-06-24T04:26:53;21.30;29.40
77039;DHT22;65970;50.476;4.840;2023-06-24T04:31:53;21.30;29.40
77039;DHT22;65970;50.476;4.840;2023-06-24T04:36:54;21.30;29.70
77039;DHT22;65970;50.476;4.840;2023-06-24T04:41:54;21.20;29.80
77039;DHT22;65970;50.476;4.840;2023-06-24T04:46:55;21.20;29.90
77039;DHT22;65970;50.476;4.840;2023-06-24T04:51:55;21.10;29.90
77039;DHT22;65970;50.476;4.840;2023-06-24T04:56:56;21.10;30.00
77039;DHT22;65970;50.476;4.840;2023-06-24T05:01:56;21.10;30.00
77039;DHT22;65970;50.476;4.840;2023-06-24T05:06:57;21.00;30.30
77039;DHT22;65970;50.476;4.840;2023-06-24T05:11:57;21.00;30.30
77039;DHT22;65970;50.476;4.840;2023-06-24T05:16:58;21.00;30.50
77039;DHT22;65970;50.476;4.840;2023-06-24T05:21:59;21.00;29.80
77039;DHT22;65970;50.476;4.840;2023-06-24T05:27:04;21.00;30.40
77039;DHT22;65970;50.476;4.840;2023-06-24T05:32:05;20.90;30.50
77039;DHT22;65970;50.476;4.840;2023-06-24T05:37:05;20.90;30.30
77039;DHT22;65970;50.476;4.840;2023-06-24T05:42:06;20.80;30.30
77039;DHT22;65970;50.476;4.840;2023-06-24T05:47:07;20.80;30.40
77039;DHT22;65970;50.476;4.840;2023-06-24T05:52:07;20.80;30.40
77039;DHT22;65970;50.476;4.840;2023-06-24T05:57:08;20.80;30.60
77039;DHT22;65970;50.476;4.840;2023-06-24T06:02:09;20.70;30.10
77039;DHT22;65970;50.476;4.840;2023-06-24T06:07:10;20.70;29.90
77039;DHT22;65970;50.476;4.840;2023-06-24T06:12:11;20.70;30.30
77039;DHT22;65970;50.476;4.840;2023-06-24T06:17:13;20.70;30.30
77039;DHT22;65970;50.476;4.840;2023-06-24T06:22:14;20.60;29.20
77039;DHT22;65970;50.476;4.840;2023-06-24T06:27:14;20.60;28.40
77039;DHT22;65970;50.476;4.840;2023-06-24T06:32:15;20.60;28.60
77039;DHT22;65970;50.476;4.840;2023-06-24T06:37:15;20.60;29.00
77039;DHT22;65970;50.476;4.840;2023-06-24T06:42:16;20.60;28.60
77039;DHT22;65970;50.476;4.840;2023-06-24T06:47:17;20.60;28.30
77039;DHT22;65970;50.476;4.840;2023-06-24T06:52:17;20.50;27.80
77039;DHT22;65970;50.476;4.840;2023-06-24T06:57:18;20.50;28.30
77039;DHT22;65970;50.476;4.840;2023-06-24T07:02:18;20.50;27.50
77039;DHT22;65970;50.476;4.840;2023-06-24T07:07:19;20.50;27.90
77039;DHT22;65970;50.476;4.840;2023-06-24T07:12:20;20.50;27.20
77039;DHT22;65970;50.476;4.840;2023-06-24T07:17:20;20.50;27.50
77039;DHT22;65970;50.476;4.840;2023-06-24T07:22:21;20.50;27.30
77039;DHT22;65970;50.476;4.840;2023-06-24T07:27:21;20.50;27.00
77039;DHT22;65970;50.476;4.840;2023-06-24T07:32:22;20.40;26.80
77039;DHT22;65970;50.476;4.840;2023-06-24T07:37:23;20.50;26.60
77039;DHT22;65970;50.476;4.840;2023-06-24T07:42:23;20.40;26.40
77039;DHT22;65970;50.476;4.840;2023-06-24T07:47:24;20.40;26.10
77039;DHT22;65970;50.476;4.840;2023-06-24T07:52:24;20.40;26.20
77039;DHT22;65970;50.476;4.840;2023-06-24T07:57:26;20.40;26.20
77039;DHT22;65970;50.476;4.840;2023-06-24T08:02:27;20.40;26.00
77039;DHT22;65970;50.476;4.840;2023-06-24T08:07:27;20.40;26.10
77039;DHT22;65970;50.476;4.840;2023-06-24T08:12:28;20.40;26.00
77039;DHT22;65970;50.476;4.840;2023-06-24T08:17:29;20.40;26.00
77039;DHT22;65970;50.476;4.840;2023-06-24T08:22:29;20.40;25.90
77039;DHT22;65970;50.476;4.840;2023-06-24T08:27:30;20.40;25.80
77039;DHT22;65970;50.476;4.840;2023-06-24T08:32:30;20.40;25.80
77039;DHT22;65970;50.476;4.840;2023-06-24T08:37:31;20.50;26.10
77039;DHT22;65970;50.476;4.840;2023-06-24T08:42:32;20.50;26.20
77039;DHT22;65970;50.476;4.840;2023-06-24T08:47:33;20.50;26.20
77039;DHT22;65970;50.476;4.840;2023-06-24T08:52:36;20.60;26.20
77039;DHT22;65970;50.476;4.840;2023-06-24T08:57:36;20.70;26.00
77039;DHT22;65970;50.476;4.840;2023-06-24T09:02:38;20.80;26.10
77039;DHT22;65970;50.476;4.840;2023-06-24T09:07:39;20.80;25.90
77039;DHT22;65970;50.476;4.840;2023-06-24T09:12:39;20.90;25.70
77039;DHT22;65970;50.476;4.840;2023-06-24T09:17:46;21.00;26.30
77039;DHT22;65970;50.476;4.840;2023-06-24T09:22:46;21.20;25.80
77039;DHT22;65970;50.476;4.840;2023-06-24T09:27:48;21.30;26.10
77039;DHT22;65970;50.476;4.840;2023-06-24T09:32:49;21.40;25.90
77039;DHT22;65970;50.476;4.840;2023-06-24T09:37:51;21.50;26.00
77039;DHT22;65970;50.476;4.840;2023-06-24T09:42:54;21.60;26.10
77039;DHT22;65970;50.476;4.840;2023-06-24T09:47:56;21.80;25.90
77039;DHT22;65970;50.476;4.840;2023-06-24T09:52:57;21.90;26.00
77039;DHT22;65970;50.476;4.840;2023-06-24T09:57:58;22.00;26.00
77039;DHT22;65970;50.476;4.840;2023-06-24T10:02:58;22.20;25.60
77039;DHT22;65970;50.476;4.840;2023-06-24T10:07:59;22.30;25.60
77039;DHT22;65970;50.476;4.840;2023-06-24T10:12:59;22.40;25.60
77039;DHT22;65970;50.476;4.840;2023-06-24T10:18:03;22.60;25.80
77039;DHT22;65970;50.476;4.840;2023-06-24T10:39:48;23.10;25.60
77039;DHT22;65970;50.476;4.840;2023-06-24T10:44:49;23.30;25.70
77039;DHT22;65970;50.476;4.840;2023-06-24T10:49:50;23.40;25.70
77039;DHT22;65970;50.476;4.840;2023-06-24T10:54:52;23.50;25.70
77039;DHT22;65970;50.476;4.840;2023-06-24T10:59:54;23.60;25.00
77039;DHT22;65970;50.476;4.840;2023-06-24T11:05:00;23.70;25.70
77039;DHT22;65970;50.476;4.840;2023-06-24T11:15:08;24.00;25.40
77039;DHT22;65970;50.476;4.840;2023-06-24T11:20:11;24.10;25.60
77039;DHT22;65970;50.476;4.840;2023-06-24T11:25:20;24.20;25.40
77039;DHT22;65970;50.476;4.840;2023-06-24T11:30:20;24.30;25.80
77039;DHT22;65970;50.476;4.840;2023-06-24T11:35:21;24.40;25.00
77039;DHT22;65970;50.476;4.840;2023-06-24T11:40:22;24.50;23.80
77039;DHT22;65970;50.476;4.840;2023-06-24T11:45:22;24.60;20.80
77039;DHT22;65970;50.476;4.840;2023-06-24T11:50:26;24.70;24.50
77039;DHT22;65970;50.476;4.840;2023-06-24T11:55:27;24.80;23.70
77039;DHT22;65970;50.476;4.840;2023-06-24T12:00:32;24.90;25.40
77039;DHT22;65970;50.476;4.840;2023-06-24T12:05:34;25.00;25.40
77039;DHT22;65970;50.476;4.840;2023-06-24T12:10:36;25.10;24.20
77039;DHT22;65970;50.476;4.840;2023-06-24T12:15:37;25.20;25.20
77039;DHT22;65970;50.476;4.840;2023-06-24T12:20:37;25.30;25.60
77039;DHT22;65970;50.476;4.840;2023-06-24T12:25:38;25.40;25.50
77039;DHT22;65970;50.476;4.840;2023-06-24T12:30:39;25.50;25.50
77039;DHT22;65970;50.476;4.840;2023-06-24T12:35:39;25.60;24.90
77039;DHT22;65970;50.476;4.840;2023-06-24T12:40:40;25.70;23.10
77039;DHT22;65970;50.476;4.840;2023-06-24T12:45:41;25.80;23.20
77039;DHT22;65970;50.476;4.840;2023-06-24T12:50:42;25.90;23.50
77039;DHT22;65970;50.476;4.840;2023-06-24T12:55:42;26.00;25.20
77039;DHT22;65970;50.476;4.840;2023-06-24T13:00:43;26.00;23.40
77039;DHT22;65970;50.476;4.840;2023-06-24T13:05:43;26.20;24.60
77039;DHT22;65970;50.476;4.840;2023-06-24T13:10:44;26.20;24.20
77039;DHT22;65970;50.476;4.840;2023-06-24T13:15:45;26.30;23.50
77039;DHT22;65970;50.476;4.840;2023-06-24T13:20:45;26.40;23.00
77039;DHT22;65970;50.476;4.840;2023-06-24T13:25:46;26.40;24.30
77039;DHT22;65970;50.476;4.840;2023-06-24T13:30:46;26.50;21.40
77039;DHT22;65970;50.476;4.840;2023-06-24T13:35:47;26.60;22.90
77039;DHT22;65970;50.476;4.840;2023-06-24T13:40:47;26.60;24.90
77039;DHT22;65970;50.476;4.840;2023-06-24T13:45:48;26.70;24.50
77039;DHT22;65970;50.476;4.840;2023-06-24T13:50:49;26.80;23.90
77039;DHT22;65970;50.476;4.840;2023-06-24T13:55:49;26.90;24.00
77039;DHT22;65970;50.476;4.840;2023-06-24T14:00:50;26.90;21.70
77039;DHT22;65970;50.476;4.840;2023-06-24T14:05:50;27.00;20.60
77039;DHT22;65970;50.476;4.840;2023-06-24T14:10:51;27.10;23.80
77039;DHT22;65970;50.476;4.840;2023-06-24T14:15:52;27.10;24.40
77039;DHT22;65970;50.476;4.840;2023-06-24T14:20:52;27.20;23.50
77039;DHT22;65970;50.476;4.840;2023-06-24T14:25:53;27.20;21.70
77039;DHT22;65970;50.476;4.840;2023-06-24T14:30:53;27.30;24.10
77039;DHT22;65970;50.476;4.840;2023-06-24T14:35:54;27.30;22.90
77039;DHT22;65970;50.476;4.840;2023-06-24T14:40:54;27.40;24.10
77039;DHT22;65970;50.476;4.840;2023-06-24T14:45:55;27.40;21.80
77039;DHT22;65970;50.476;4.840;2023-06-24T14:50:56;27.50;22.90
77039;DHT22;65970;50.476;4.840;2023-06-24T14:55:56;27.50;23.10
77039;DHT22;65970;50.476;4.840;2023-06-24T15:00:57;27.60;23.60
77039;DHT22;65970;50.476;4.840;2023-06-24T15:05:57;27.60;21.90
77039;DHT22;65970;50.476;4.840;2023-06-24T15:10:58;27.70;22.60
77039;DHT22;65970;50.476;4.840;2023-06-24T15:15:58;27.70;21.60
77039;DHT22;65970;50.476;4.840;2023-06-24T15:20:59;27.70;22.90
77039;DHT22;65970;50.476;4.840;2023-06-24T15:25:59;27.80;22.20
77039;DHT22;65970;50.476;4.840;2023-06-24T15:31:00;27.80;20.20
77039;DHT22;65970;50.476;4.840;2023-06-24T15:36:00;27.90;21.40
77039;DHT22;65970;50.476;4.840;2023-06-24T15:41:01;27.90;23.20
77039;DHT22;65970;50.476;4.840;2023-06-24T15:46:02;27.90;19.20
77039;DHT22;65970;50.476;4.840;2023-06-24T15:51:02;27.90;19.20
77039;DHT22;65970;50.476;4.840;2023-06-24T15:56:03;27.90;21.70
77039;DHT22;65970;50.476;4.840;2023-06-24T16:01:03;27.90;19.20
77039;DHT22;65970;50.476;4.840;2023-06-24T16:06:04;28.00;21.40
77039;DHT22;65970;50.476;4.840;2023-06-24T16:11:05;27.90;22.00
77039;DHT22;65970;50.476;4.840;2023-06-24T16:16:05;28.00;21.40
77039;DHT22;65970;50.476;4.840;2023-06-24T16:21:06;28.00;20.30
77039;DHT22;65970;50.476;4.840;2023-06-24T16:26:06;27.90;18.80
77039;DHT22;65970;50.476;4.840;2023-06-24T16:31:07;28.00;18.00
77039;DHT22;65970;50.476;4.840;2023-06-24T16:36:07;28.00;19.00
77039;DHT22;65970;50.476;4.840;2023-06-24T16:41:08;28.00;19.60
77039;DHT22;65970;50.476;4.840;2023-06-24T16:46:09;28.00;18.40
77039;DHT22;65970;50.476;4.840;2023-06-24T16:51:09;28.00;19.30
77039;DHT22;65970;50.476;4.840;2023-06-24T16:56:10;28.00;20.30
77039;DHT22;65970;50.476;4.840;2023-06-24T17:01:10;28.00;18.20
77039;DHT22;65970;50.476;4.840;2023-06-24T17:06:12;27.90;18.00
77039;DHT22;65970;50.476;4.840;2023-06-24T17:11:12;28.00;19.50
77039;DHT22;65970;50.476;4.840;2023-06-24T17:16:13;28.00;17.40
77039;DHT22;65970;50.476;4.840;2023-06-24T17:21:14;28.00;19.00
77039;DHT22;65970;50.476;4.840;2023-06-24T17:26:14;27.90;18.40
77039;DHT22;65970;50.476;4.840;2023-06-24T17:31:15;27.90;17.40
77039;DHT22;65970;50.476;4.840;2023-06-24T17:36:15;27.90;17.80
77039;DHT22;65970;50.476;4.840;2023-06-24T17:41:16;27.90;17.70
77039;DHT22;65970;50.476;4.840;2023-06-24T17:46:17;27.90;17.10
77039;DHT22;65970;50.476;4.840;2023-06-24T17:51:17;27.80;17.20
77039;DHT22;65970;50.476;4.840;2023-06-24T17:56:18;27.90;17.80
77039;DHT22;65970;50.476;4.840;2023-06-24T18:01:18;27.80;17.90
77039;DHT22;65970;50.476;4.840;2023-06-24T18:06:19;27.70;16.50
77039;DHT22;65970;50.476;4.840;2023-06-24T18:11:19;27.70;16.90
77039;DHT22;65970;50.476;4.840;2023-06-24T18:16:20;27.70;16.80
77039;DHT22;65970;50.476;4.840;2023-06-24T18:21:20;27.60;16.60
77039;DHT22;65970;50.476;4.840;2023-06-24T18:26:21;27.60;16.00
77039;DHT22;65970;50.476;4.840;2023-06-24T18:31:21;27.60;16.70
77039;DHT22;65970;50.476;4.840;2023-06-24T18:36:22;27.50;16.60
77039;DHT22;65970;50.476;4.840;2023-06-24T18:41:23;27.50;16.30
77039;DHT22;65970;50.476;4.840;2023-06-24T18:46:23;27.40;16.80
77039;DHT22;65970;50.476;4.840;2023-06-24T18:51:24;27.40;16.80
77039;DHT22;65970;50.476;4.840;2023-06-24T18:56:24;27.40;17.10
77039;DHT22;65970;50.476;4.840;2023-06-24T19:01:25;27.30;17.10
77039;DHT22;65970;50.476;4.840;2023-06-24T19:06:25;27.30;17.20
77039;DHT22;65970;50.476;4.840;2023-06-24T19:11:26;27.20;17.50
77039;DHT22;65970;50.476;4.840;2023-06-24T19:16:26;27.20;17.70
77039;DHT22;65970;50.476;4.840;2023-06-24T19:21:27;27.10;17.90
77039;DHT22;65970;50.476;4.840;2023-06-24T19:26:27;27.10;17.90
77039;DHT22;65970;50.476;4.840;2023-06-24T19:31:28;27.00;18.10
77039;DHT22;65970;50.476;4.840;2023-06-24T19:36:28;27.00;18.20
77039;DHT22;65970;50.476;4.840;2023-06-24T19:41:29;26.90;17.80
77039;DHT22;65970;50.476;4.840;2023-06-24T19:46:30;26.90;17.90
77039;DHT22;65970;50.476;4.840;2023-06-24T19:51:30;26.80;18.10
77039;DHT22;65970;50.476;4.840;2023-06-24T19:56:31;26.80;18.30
77039;DHT22;65970;50.476;4.840;2023-06-24T20:01:31;26.70;18.50
77039;DHT22;65970;50.476;4.840;2023-06-24T20:06:32;26.70;18.60
77039;DHT22;65970;50.476;4.840;2023-06-24T20:11:32;26.60;18.80
77039;DHT22;65970;50.476;4.840;2023-06-24T20:16:33;26.60;18.90
77039;DHT22;65970;50.476;4.840;2023-06-24T20:21:33;26.50;19.00
77039;DHT22;65970;50.476;4.840;2023-06-24T20:26:34;26.40;19.00
77039;DHT22;65970;50.476;4.840;2023-06-24T20:31:35;26.40;19.10
77039;DHT22;65970;50.476;4.840;2023-06-24T20:36:36;26.30;19.10
77039;DHT22;65970;50.476;4.840;2023-06-24T20:41:36;26.30;19.20
77039;DHT22;65970;50.476;4.840;2023-06-24T20:46:37;26.20;19.40
77039;DHT22;65970;50.476;4.840;2023-06-24T20:51:37;26.10;19.40
77039;DHT22;65970;50.476;4.840;2023-06-24T20:56:38;26.10;19.20
77039;DHT22;65970;50.476;4.840;2023-06-24T21:01:38;26.00;18.50
77039;DHT22;65970;50.476;4.840;2023-06-24T21:06:39;25.90;19.10
77039;DHT22;65970;50.476;4.840;2023-06-24T21:11:39;25.90;19.20
77039;DHT22;65970;50.476;4.840;2023-06-24T21:16:40;25.80;19.20
77039;DHT22;65970;50.476;4.840;2023-06-24T21:21:40;25.80;19.30
77039;DHT22;65970;50.476;4.840;2023-06-24T21:26:41;25.70;19.40
77039;DHT22;65970;50.476;4.840;2023-06-24T21:31:41;25.60;19.60
77039;DHT22;65970;50.476;4.840;2023-06-24T21:36:42;25.60;19.80
77039;DHT22;65970;50.476;4.840;2023-06-24T21:41:42;25.50;20.00
77039;DHT22;65970;50.476;4.840;2023-06-24T21:46:43;25.40;20.20
77039;DHT22;65970;50.476;4.840;2023-06-24T21:51:44;25.40;20.40
77039;DHT22;65970;50.476;4.840;2023-06-24T21:56:44;25.30;20.50
77039;DHT22;65970;50.476;4.840;2023-06-24T22:01:45;25.20;20.60
77039;DHT22;65970;50.476;4.840;2023-06-24T22:06:45;25.20;20.70
77039;DHT22;65970;50.476;4.840;2023-06-24T22:11:46;25.10;20.80
77039;DHT22;65970;50.476;4.840;2023-06-24T22:16:46;25.10;21.00
77039;DHT22;65970;50.476;4.840;2023-06-24T22:21:47;25.00;21.00
77039;DHT22;65970;50.476;4.840;2023-06-24T22:26:47;25.00;21.20
77039;DHT22;65970;50.476;4.840;2023-06-24T22:31:48;24.90;21.20
77039;DHT22;65970;50.476;4.840;2023-06-24T22:36:48;24.90;21.40
77039;DHT22;65970;50.476;4.840;2023-06-24T22:41:49;24.80;21.40
77039;DHT22;65970;50.476;4.840;2023-06-24T22:46:49;24.80;21.40
77039;DHT22;65970;50.476;4.840;2023-06-24T22:51:50;24.70;21.40
77039;DHT22;65970;50.476;4.840;2023-06-24T22:56:51;24.60;21.30
77039;DHT22;65970;50.476;4.840;2023-06-24T23:01:51;24.60;21.40
77039;DHT22;65970;50.476;4.840;2023-06-24T23:06:52;24.50;21.60
77039;DHT22;65970;50.476;4.840;2023-06-24T23:11:54;24.40;21.70
77039;DHT22;65970;50.476;4.840;2023-06-24T23:16:54;24.40;21.80
77039;DHT22;65970;50.476;4.840;2023-06-24T23:21:55;24.30;22.00
77039;DHT22;65970;50.476;4.840;2023-06-24T23:26:56;24.30;22.10
77039;DHT22;65970;50.476;4.840;2023-06-24T23:31:58;24.20;22.20
77039;DHT22;65970;50.476;4.840;2023-06-24T23:36:59;24.20;22.20
77039;DHT22;65970;50.476;4.840;2023-06-24T23:42:00;24.10;22.40
77039;DHT22;65970;50.476;4.840;2023-06-24T23:47:01;24.00;22.40
77039;DHT22;65970;50.476;4.840;2023-06-24T23:52:02;24.00;22.40
77039;DHT22;65970;50.476;4.840;2023-06-24T23:57:03;23.90;22.50
